CES8517 ZGHA-ZSWZ
Flight info
| Callsign | CES8517 |
|---|---|
| Flight time | N/A |
| Altitude | 37100 |
| Route | PAT9X PATVO W227 OMKOB DCT P645 DCT SHR DCT BZ/K0826S1160 A470 KAGED KAGED1F |
| Aircraft | A319/M-SDE3FGHIRWY/LB1 |
Departure
| Time | 2026-04-15 12:09 |
|---|---|
| Airport | Changsha Huanghua International Airport (ZGHA) |
Arrival
| Time | N/A |
|---|---|
| Airport | Wenzhou Longwan International Airport (ZSWZ) |
| Time | Latitude | Longitude | Altitude | Speed | Heading |
|---|---|---|---|---|---|
| 2026-04-15 12:02 | 28.18742 | 113.21592 | 214 ft | 0 kts | 268° |
| 2026-04-15 12:05 | 28.18744 | 113.21620 | 216 ft | 4 kts | 265° |
| 2026-04-15 12:05 | 28.18744 | 113.21631 | 214 ft | 4 kts | 263° |
| 2026-04-15 12:05 | 28.18749 | 113.21661 | 221 ft | 4 kts | 256° |
| 2026-04-15 12:06 | 28.18757 | 113.21689 | 215 ft | 3 kts | 240° |
| 2026-04-15 12:06 | 28.18761 | 113.21696 | 220 ft | 0 kts | 238° |
| 2026-04-15 12:06 | 28.18760 | 113.21694 | 215 ft | 2 kts | 238° |
| 2026-04-15 12:07 | 28.18708 | 113.21687 | 214 ft | 13 kts | 169° |
| 2026-04-15 12:07 | 28.18646 | 113.21790 | 214 ft | 17 kts | 130° |
| 2026-04-15 12:07 | 28.18512 | 113.21811 | 214 ft | 26 kts | 178° |
| 2026-04-15 12:07 | 28.18272 | 113.21821 | 214 ft | 40 kts | 178° |
| 2026-04-15 12:08 | 28.17962 | 113.21849 | 214 ft | 49 kts | 177° |
| 2026-04-15 12:08 | 28.17748 | 113.21910 | 219 ft | 19 kts | 104° |
| 2026-04-15 12:08 | 28.17795 | 113.22046 | 221 ft | 8 kts | 5° |
| 2026-04-15 12:08 | 28.17798 | 113.22046 | 219 ft | 0 kts | 2° |
| 2026-04-15 12:09 | 28.18091 | 113.22031 | 217 ft | 99 kts | 355° |
| 2026-04-15 12:09 | 28.19016 | 113.21968 | 730 ft | 135 kts | 356° |
| 2026-04-15 12:09 | 28.19985 | 113.21915 | 1620 ft | 150 kts | 358° |
| 2026-04-15 12:09 | 28.21107 | 113.21850 | 2439 ft | 173 kts | 359° |
| 2026-04-15 12:10 | 28.22391 | 113.21774 | 3264 ft | 197 kts | 358° |
| 2026-04-15 12:10 | 28.23845 | 113.21683 | 4145 ft | 221 kts | 355° |
| 2026-04-15 12:10 | 28.25414 | 113.21580 | 5418 ft | 230 kts | 353° |
| 2026-04-15 12:10 | 28.26506 | 113.21509 | 6338 ft | 235 kts | 351° |
| 2026-04-15 12:11 | 28.28706 | 113.21369 | 8108 ft | 242 kts | 351° |
| 2026-04-15 12:11 | 28.30410 | 113.21264 | 9481 ft | 248 kts | 351° |
| 2026-04-15 12:11 | 28.32153 | 113.21154 | 10771 ft | 254 kts | 350° |
| 2026-04-15 12:11 | 28.33943 | 113.21038 | 12020 ft | 261 kts | 349° |
| 2026-04-15 12:12 | 28.35184 | 113.20978 | 12845 ft | 269 kts | 353° |
| 2026-04-15 12:12 | 28.37056 | 113.21554 | 13955 ft | 294 kts | 27° |
| 2026-04-15 12:12 | 28.38501 | 113.23252 | 15000 ft | 309 kts | 62° |
| 2026-04-15 12:12 | 28.39112 | 113.25598 | 16086 ft | 312 kts | 84° |
| 2026-04-15 12:13 | 28.39302 | 113.28064 | 17189 ft | 315 kts | 91° |